sensor_id;sensor_type;location;lat;lon;timestamp;pressure;altitude;pressure_sealevel;temperature;humidity
25759;BME280;13604;52.496;13.456;2024-03-17T00:00:40;101696.59;;;3.14;96.17
25759;BME280;13604;52.496;13.456;2024-03-17T00:03:06;101675.53;;;2.99;95.92
25759;BME280;13604;52.496;13.456;2024-03-17T00:05:34;101685.22;;;3.02;96.55
25759;BME280;13604;52.496;13.456;2024-03-17T00:07:59;101713.44;;;3.10;96.34
25759;BME280;13604;52.496;13.456;2024-03-17T00:10:24;101722.97;;;3.11;96.77
25759;BME280;13604;52.496;13.456;2024-03-17T00:12:50;101708.78;;;3.06;96.85
25759;BME280;13604;52.496;13.456;2024-03-17T00:15:16;101721.22;;;3.02;97.33
25759;BME280;13604;52.496;13.456;2024-03-17T00:17:42;101725.41;;;3.10;97.51
25759;BME280;13604;52.496;13.456;2024-03-17T00:20:08;101696.34;;;2.92;98.14
25759;BME280;13604;52.496;13.456;2024-03-17T00:22:36;101707.47;;;3.01;97.95
25759;BME280;13604;52.496;13.456;2024-03-17T00:25:06;101708.38;;;3.02;98.20
25759;BME280;13604;52.496;13.456;2024-03-17T00:27:32;101713.09;;;2.97;99.51
25759;BME280;13604;52.496;13.456;2024-03-17T00:29:57;101719.50;;;3.11;100.00
25759;BME280;13604;52.496;13.456;2024-03-17T00:32:22;101726.31;;;3.10;99.02
25759;BME280;13604;52.496;13.456;2024-03-17T00:34:48;101715.47;;;3.04;98.70
25759;BME280;13604;52.496;13.456;2024-03-17T00:37:14;101728.25;;;3.13;98.16
25759;BME280;13604;52.496;13.456;2024-03-17T00:39:39;101704.75;;;3.00;97.02
25759;BME280;13604;52.496;13.456;2024-03-17T00:42:05;101721.28;;;3.12;97.53
25759;BME280;13604;52.496;13.456;2024-03-17T00:44:30;101717.19;;;2.95;97.90
25759;BME280;13604;52.496;13.456;2024-03-17T00:46:55;101716.63;;;2.89;98.11
25759;BME280;13604;52.496;13.456;2024-03-17T00:49:21;101733.22;;;3.01;98.19
25759;BME280;13604;52.496;13.456;2024-03-17T00:51:46;101702.16;;;2.81;98.68
25759;BME280;13604;52.496;13.456;2024-03-17T00:54:14;101706.88;;;2.76;99.72
25759;BME280;13604;52.496;13.456;2024-03-17T00:56:40;101729.22;;;2.86;100.00
25759;BME280;13604;52.496;13.456;2024-03-17T00:59:05;101719.72;;;2.85;100.00
25759;BME280;13604;52.496;13.456;2024-03-17T01:01:30;101695.91;;;2.68;100.00
25759;BME280;13604;52.496;13.456;2024-03-17T01:03:56;101702.97;;;2.71;100.00
25759;BME280;13604;52.496;13.456;2024-03-17T01:06:21;101671.63;;;2.56;100.00
25759;BME280;13604;52.496;13.456;2024-03-17T01:08:47;101737.22;;;2.89;100.00
25759;BME280;13604;52.496;13.456;2024-03-17T01:11:15;101681.16;;;2.57;99.47
25759;BME280;13604;52.496;13.456;2024-03-17T01:13:41;101702.09;;;2.70;100.00
25759;BME280;13604;52.496;13.456;2024-03-17T01:16:07;101743.25;;;2.89;99.38
25759;BME280;13604;52.496;13.456;2024-03-17T01:18:32;101716.13;;;2.74;99.20
25759;BME280;13604;52.496;13.456;2024-03-17T01:20:57;101738.75;;;2.87;99.76
25759;BME280;13604;52.496;13.456;2024-03-17T01:23:23;101746.75;;;2.90;99.36
25759;BME280;13604;52.496;13.456;2024-03-17T01:25:48;101693.06;;;2.65;99.69
25759;BME280;13604;52.496;13.456;2024-03-17T01:28:13;101706.94;;;2.67;100.00
25759;BME280;13604;52.496;13.456;2024-03-17T01:30:39;101738.38;;;2.73;100.00
25759;BME280;13604;52.496;13.456;2024-03-17T01:33:05;101723.47;;;2.61;100.00
25759;BME280;13604;52.496;13.456;2024-03-17T01:35:30;101703.16;;;2.45;100.00
25759;BME280;13604;52.496;13.456;2024-03-17T01:37:55;101744.34;;;2.64;100.00
25759;BME280;13604;52.496;13.456;2024-03-17T01:40:21;101735.44;;;2.60;100.00
25759;BME280;13604;52.496;13.456;2024-03-17T01:42:46;101705.13;;;2.47;100.00
25759;BME280;13604;52.496;13.456;2024-03-17T01:45:27;101714.09;;;2.61;100.00
25759;BME280;13604;52.496;13.456;2024-03-17T01:47:57;101701.75;;;2.48;100.00
25759;BME280;13604;52.496;13.456;2024-03-17T01:50:23;101675.53;;;2.33;100.00
25759;BME280;13604;52.496;13.456;2024-03-17T01:52:51;101723.78;;;2.64;100.00
25759;BME280;13604;52.496;13.456;2024-03-17T01:55:17;101712.91;;;2.57;100.00
25759;BME280;13604;52.496;13.456;2024-03-17T01:57:43;101720.31;;;2.63;100.00
25759;BME280;13604;52.496;13.456;2024-03-17T02:00:09;101713.25;;;2.52;100.00
25759;BME280;13604;52.496;13.456;2024-03-17T02:02:37;101697.72;;;2.42;100.00
25759;BME280;13604;52.496;13.456;2024-03-17T02:05:03;101725.19;;;2.51;100.00
25759;BME280;13604;52.496;13.456;2024-03-17T02:07:28;101725.19;;;2.51;100.00
25759;BME280;13604;52.496;13.456;2024-03-17T02:09:56;101731.13;;;2.50;100.00
25759;BME280;13604;52.496;13.456;2024-03-17T02:12:21;101716.94;;;2.36;100.00
25759;BME280;13604;52.496;13.456;2024-03-17T02:14:46;101722.88;;;2.35;100.00
25759;BME280;13604;52.496;13.456;2024-03-17T02:17:12;101737.50;;;2.45;100.00
25759;BME280;13604;52.496;13.456;2024-03-17T02:19:37;101701.44;;;2.26;100.00
25759;BME280;13604;52.496;13.456;2024-03-17T02:22:02;101717.59;;;2.25;100.00
25759;BME280;13604;52.496;13.456;2024-03-17T02:24:28;101729.13;;;2.29;100.00
25759;BME280;13604;52.496;13.456;2024-03-17T02:26:54;101732.09;;;2.33;100.00
25759;BME280;13604;52.496;13.456;2024-03-17T02:29:19;101690.69;;;2.02;100.00
25759;BME280;13604;52.496;13.456;2024-03-17T02:31:44;101714.50;;;2.10;100.00
25759;BME280;13604;52.496;13.456;2024-03-17T02:34:10;101720.72;;;2.12;100.00
25759;BME280;13604;52.496;13.456;2024-03-17T02:36:35;101691.78;;;1.87;100.00
25759;BME280;13604;52.496;13.456;2024-03-17T02:39:00;101729.13;;;2.20;100.00
25759;BME280;13604;52.496;13.456;2024-03-17T02:41:44;101712.88;;;2.02;100.00
25759;BME280;13604;52.496;13.456;2024-03-17T02:44:11;101737.63;;;2.10;100.00
25759;BME280;13604;52.496;13.456;2024-03-17T02:46:36;101731.50;;;1.99;100.00
25759;BME280;13604;52.496;13.456;2024-03-17T02:49:02;101707.03;;;1.94;100.00
25759;BME280;13604;52.496;13.456;2024-03-17T02:51:28;101734.91;;;2.09;100.00
25759;BME280;13604;52.496;13.456;2024-03-17T02:53:53;101739.78;;;2.06;100.00
25759;BME280;13604;52.496;13.456;2024-03-17T02:56:19;101730.00;;;1.93;100.00
25759;BME280;13604;52.496;13.456;2024-03-17T02:58:45;101715.22;;;1.81;100.00
25759;BME280;13604;52.496;13.456;2024-03-17T03:01:11;101732.56;;;1.93;100.00
25759;BME280;13604;52.496;13.456;2024-03-17T03:03:37;101731.94;;;1.95;100.00
25759;BME280;13604;52.496;13.456;2024-03-17T03:06:02;101682.91;;;1.66;100.00
25759;BME280;13604;52.496;13.456;2024-03-17T03:08:31;101726.09;;;1.88;100.00
25759;BME280;13604;52.496;13.456;2024-03-17T03:10:57;101720.50;;;1.83;100.00
25759;BME280;13604;52.496;13.456;2024-03-17T03:13:22;101729.25;;;1.85;100.00
25759;BME280;13604;52.496;13.456;2024-03-17T03:15:48;101733.31;;;1.92;100.00
25759;BME280;13604;52.496;13.456;2024-03-17T03:18:14;101739.09;;;1.89;100.00
25759;BME280;13604;52.496;13.456;2024-03-17T03:20:39;101709.03;;;1.71;100.00
25759;BME280;13604;52.496;13.456;2024-03-17T03:23:05;101706.34;;;1.69;100.00
25759;BME280;13604;52.496;13.456;2024-03-17T03:25:30;101736.38;;;1.88;100.00
25759;BME280;13604;52.496;13.456;2024-03-17T03:27:55;101719.66;;;1.65;100.00
25759;BME280;13604;52.496;13.456;2024-03-17T03:30:23;101728.09;;;1.64;100.00
25759;BME280;13604;52.496;13.456;2024-03-17T03:32:48;101744.84;;;1.69;100.00
25759;BME280;13604;52.496;13.456;2024-03-17T03:35:14;101715.31;;;1.46;100.00
25759;BME280;13604;52.496;13.456;2024-03-17T03:37:40;101739.88;;;1.71;100.00
25759;BME280;13604;52.496;13.456;2024-03-17T03:40:08;101711.69;;;1.53;100.00
25759;BME280;13604;52.496;13.456;2024-03-17T03:42:41;101745.91;;;1.62;100.00
25759;BME280;13604;52.496;13.456;2024-03-17T03:45:07;101713.81;;;1.40;100.00
25759;BME280;13604;52.496;13.456;2024-03-17T03:47:32;101713.16;;;1.51;100.00
25759;BME280;13604;52.496;13.456;2024-03-17T03:49:58;101750.34;;;1.55;100.00
25759;BME280;13604;52.496;13.456;2024-03-17T03:52:23;101714.09;;;1.43;100.00
25759;BME280;13604;52.496;13.456;2024-03-17T03:54:51;101736.41;;;1.53;100.00
25759;BME280;13604;52.496;13.456;2024-03-17T03:57:17;101733.84;;;1.53;100.00
25759;BME280;13604;52.496;13.456;2024-03-17T03:59:42;101736.44;;;1.44;100.00
25759;BME280;13604;52.496;13.456;2024-03-17T04:02:08;101742.06;;;1.40;100.00
25759;BME280;13604;52.496;13.456;2024-03-17T04:04:34;101756.81;;;1.51;100.00
25759;BME280;13604;52.496;13.456;2024-03-17T04:07:00;101725.28;;;1.26;100.00
25759;BME280;13604;52.496;13.456;2024-03-17T04:09:25;101746.41;;;1.41;100.00
25759;BME280;13604;52.496;13.456;2024-03-17T04:11:50;101754.25;;;1.42;100.00
25759;BME280;13604;52.496;13.456;2024-03-17T04:14:15;101728.75;;;1.35;100.00
25759;BME280;13604;52.496;13.456;2024-03-17T04:16:41;101732.09;;;1.25;100.00
25759;BME280;13604;52.496;13.456;2024-03-17T04:19:06;101752.59;;;1.43;100.00
25759;BME280;13604;52.496;13.456;2024-03-17T04:21:32;101755.63;;;1.39;100.00
25759;BME280;13604;52.496;13.456;2024-03-17T04:23:57;101746.41;;;1.41;100.00
25759;BME280;13604;52.496;13.456;2024-03-17T04:26:23;101755.94;;;1.42;100.00
25759;BME280;13604;52.496;13.456;2024-03-17T04:28:48;101757.44;;;1.40;100.00
25759;BME280;13604;52.496;13.456;2024-03-17T04:31:13;101716.56;;;1.15;100.00
25759;BME280;13604;52.496;13.456;2024-03-17T04:33:39;101723.59;;;1.26;100.00
25759;BME280;13604;52.496;13.456;2024-03-17T04:36:06;101761.81;;;1.41;100.00
25759;BME280;13604;52.496;13.456;2024-03-17T04:38:31;101752.31;;;1.40;100.00
25759;BME280;13604;52.496;13.456;2024-03-17T04:40:57;101745.38;;;1.30;100.00
25759;BME280;13604;52.496;13.456;2024-03-17T04:43:33;101700.09;;;0.96;100.00
25759;BME280;13604;52.496;13.456;2024-03-17T04:46:05;101764.81;;;1.28;100.00
25759;BME280;13604;52.496;13.456;2024-03-17T04:48:32;101740.06;;;1.11;100.00
25759;BME280;13604;52.496;13.456;2024-03-17T04:50:59;101783.41;;;1.25;100.00
25759;BME280;13604;52.496;13.456;2024-03-17T04:53:25;101769.81;;;1.26;100.00
25759;BME280;13604;52.496;13.456;2024-03-17T04:56:16;101774.66;;;1.23;100.00
25759;BME280;13604;52.496;13.456;2024-03-17T04:58:42;101777.06;;;1.22;100.00
25759;BME280;13604;52.496;13.456;2024-03-17T05:01:08;101761.50;;;1.12;100.00
25759;BME280;13604;52.496;13.456;2024-03-17T05:03:34;101736.75;;;0.95;100.00
25759;BME280;13604;52.496;13.456;2024-03-17T05:06:03;101767.97;;;1.17;100.00
25759;BME280;13604;52.496;13.456;2024-03-17T05:08:30;101779.34;;;1.19;100.00
25759;BME280;13604;52.496;13.456;2024-03-17T05:11:05;101779.63;;;1.22;100.00
25759;BME280;13604;52.496;13.456;2024-03-17T05:13:31;101781.44;;;1.23;100.00
25759;BME280;13604;52.496;13.456;2024-03-17T05:15:57;101755.31;;;1.09;100.00
25759;BME280;13604;52.496;13.456;2024-03-17T05:18:23;101761.38;;;1.19;100.00
25759;BME280;13604;52.496;13.456;2024-03-17T05:21:01;101714.56;;;0.95;100.00
25759;BME280;13604;52.496;13.456;2024-03-17T05:23:31;101772.09;;;1.32;100.00
25759;BME280;13604;52.496;13.456;2024-03-17T05:25:57;101767.25;;;1.26;100.00
25759;BME280;13604;52.496;13.456;2024-03-17T05:28:24;101778.91;;;1.32;100.00
25759;BME280;13604;52.496;13.456;2024-03-17T05:30:49;101760.00;;;1.22;100.00
25759;BME280;13604;52.496;13.456;2024-03-17T05:33:16;101791.25;;;1.36;100.00
25759;BME280;13604;52.496;13.456;2024-03-17T05:35:51;101782.03;;;1.29;100.00
25759;BME280;13604;52.496;13.456;2024-03-17T05:38:21;101796.38;;;1.36;100.00
25759;BME280;13604;52.496;13.456;2024-03-17T05:41:01;101805.28;;;1.39;100.00
25759;BME280;13604;52.496;13.456;2024-03-17T05:43:28;101784.63;;;1.29;100.00
25759;BME280;13604;52.496;13.456;2024-03-17T05:45:55;101788.22;;;1.31;100.00
25759;BME280;13604;52.496;13.456;2024-03-17T05:48:21;101761.53;;;1.20;100.00
25759;BME280;13604;52.496;13.456;2024-03-17T05:50:47;101783.41;;;1.34;100.00
25759;BME280;13604;52.496;13.456;2024-03-17T05:53:12;101778.88;;;1.40;100.00
25759;BME280;13604;52.496;13.456;2024-03-17T05:55:37;101754.88;;;1.31;100.00
25759;BME280;13604;52.496;13.456;2024-03-17T05:58:03;101808.03;;;1.58;100.00
25759;BME280;13604;52.496;13.456;2024-03-17T06:00:29;101773.59;;;1.39;100.00
25759;BME280;13604;52.496;13.456;2024-03-17T06:02:56;101801.84;;;1.56;100.00
25759;BME280;13604;52.496;13.456;2024-03-17T06:05:21;101796.22;;;1.60;100.00
25759;BME280;13604;52.496;13.456;2024-03-17T06:07:46;101802.88;;;1.67;100.00
25759;BME280;13604;52.496;13.456;2024-03-17T06:10:12;101791.06;;;1.69;100.00
25759;BME280;13604;52.496;13.456;2024-03-17T06:12:37;101816.16;;;1.80;100.00
25759;BME280;13604;52.496;13.456;2024-03-17T06:15:03;101834.13;;;1.89;100.00
25759;BME280;13604;52.496;13.456;2024-03-17T06:17:28;101816.75;;;1.87;100.00
25759;BME280;13604;52.496;13.456;2024-03-17T06:19:53;101792.41;;;1.74;100.00
25759;BME280;13604;52.496;13.456;2024-03-17T06:22:19;101821.56;;;1.92;100.00
25759;BME280;13604;52.496;13.456;2024-03-17T06:24:44;101777.63;;;1.80;100.00
25759;BME280;13604;52.496;13.456;2024-03-17T06:27:09;101829.66;;;2.23;100.00
25759;BME280;13604;52.496;13.456;2024-03-17T06:29:36;101821.22;;;2.24;100.00
25759;BME280;13604;52.496;13.456;2024-03-17T06:32:01;101832.75;;;2.55;100.00
25759;BME280;13604;52.496;13.456;2024-03-17T06:34:27;101826.00;;;2.66;100.00
25759;BME280;13604;52.496;13.456;2024-03-17T06:36:52;101843.94;;;2.84;100.00
25759;BME280;13604;52.496;13.456;2024-03-17T06:39:18;101840.13;;;2.89;100.00
25759;BME280;13604;52.496;13.456;2024-03-17T06:41:46;101843.88;;;3.01;100.00
25759;BME280;13604;52.496;13.456;2024-03-17T06:44:11;101801.06;;;2.65;100.00
25759;BME280;13604;52.496;13.456;2024-03-17T06:46:36;101813.50;;;2.61;100.00
25759;BME280;13604;52.496;13.456;2024-03-17T06:49:02;101838.84;;;2.75;100.00
25759;BME280;13604;52.496;13.456;2024-03-17T06:51:27;101838.28;;;2.97;100.00
25759;BME280;13604;52.496;13.456;2024-03-17T06:53:53;101848.59;;;3.16;100.00
25759;BME280;13604;52.496;13.456;2024-03-17T06:56:18;101850.06;;;3.22;100.00
25759;BME280;13604;52.496;13.456;2024-03-17T06:58:43;101856.59;;;3.27;100.00
25759;BME280;13604;52.496;13.456;2024-03-17T07:01:09;101845.94;;;3.33;100.00
25759;BME280;13604;52.496;13.456;2024-03-17T07:03:34;101857.91;;;3.52;100.00
25759;BME280;13604;52.496;13.456;2024-03-17T07:06:01;101855.81;;;3.47;98.75
25759;BME280;13604;52.496;13.456;2024-03-17T07:08:30;101841.84;;;3.54;97.29
25759;BME280;13604;52.496;13.456;2024-03-17T07:11:03;101879.84;;;3.95;96.72
25759;BME280;13604;52.496;13.456;2024-03-17T07:13:33;101878.06;;;4.04;95.92
25759;BME280;13604;52.496;13.456;2024-03-17T07:15:59;101883.28;;;4.14;94.80
25759;BME280;13604;52.496;13.456;2024-03-17T07:18:26;101865.28;;;4.24;92.99
25759;BME280;13604;52.496;13.456;2024-03-17T07:20:52;101868.03;;;4.66;92.02
25759;BME280;13604;52.496;13.456;2024-03-17T07:23:17;101886.31;;;5.08;88.47
25759;BME280;13604;52.496;13.456;2024-03-17T07:25:54;101889.94;;;5.41;85.99
25759;BME280;13604;52.496;13.456;2024-03-17T07:28:19;101889.41;;;5.45;85.25
25759;BME280;13604;52.496;13.456;2024-03-17T07:30:55;101890.56;;;5.69;83.71
25759;BME280;13604;52.496;13.456;2024-03-17T07:33:22;101864.56;;;5.78;80.85
25759;BME280;13604;52.496;13.456;2024-03-17T07:35:51;101886.91;;;5.88;80.51
25759;BME280;13604;52.496;13.456;2024-03-17T07:38:17;101870.78;;;5.70;80.05
25759;BME280;13604;52.496;13.456;2024-03-17T07:40:43;101889.78;;;5.81;79.63
25759;BME280;13604;52.496;13.456;2024-03-17T07:43:09;101871.78;;;5.72;79.34
25759;BME280;13604;52.496;13.456;2024-03-17T07:45:34;101862.19;;;5.92;79.13
25759;BME280;13604;52.496;13.456;2024-03-17T07:48:00;101890.63;;;6.12;77.35
25759;BME280;13604;52.496;13.456;2024-03-17T07:50:26;101902.88;;;6.25;76.12
25759;BME280;13604;52.496;13.456;2024-03-17T07:52:51;101890.50;;;6.11;76.60
25759;BME280;13604;52.496;13.456;2024-03-17T07:55:17;101908.59;;;5.90;76.14
25759;BME280;13604;52.496;13.456;2024-03-17T07:57:42;101890.00;;;5.74;77.78
25759;BME280;13604;52.496;13.456;2024-03-17T08:00:08;101886.84;;;6.19;78.61
25759;BME280;13604;52.496;13.456;2024-03-17T08:02:50;101911.31;;;6.99;73.91
25759;BME280;13604;52.496;13.456;2024-03-17T08:05:15;101895.28;;;7.15;72.06
25759;BME280;13604;52.496;13.456;2024-03-17T08:07:40;101884.22;;;7.51;69.79
25759;BME280;13604;52.496;13.456;2024-03-17T08:10:07;101906.03;;;7.89;66.72
25759;BME280;13604;52.496;13.456;2024-03-17T08:12:36;101882.50;;;7.98;66.45
25759;BME280;13604;52.496;13.456;2024-03-17T08:15:01;101871.53;;;8.14;63.44
25759;BME280;13604;52.496;13.456;2024-03-17T08:17:27;101876.91;;;8.40;63.06
25759;BME280;13604;52.496;13.456;2024-03-17T08:19:52;101875.03;;;8.87;61.41
25759;BME280;13604;52.496;13.456;2024-03-17T08:22:18;101855.19;;;9.26;59.23
25759;BME280;13604;52.496;13.456;2024-03-17T08:24:43;101895.69;;;9.61;58.81
25759;BME280;13604;52.496;13.456;2024-03-17T08:27:08;101877.44;;;9.47;58.86
25759;BME280;13604;52.496;13.456;2024-03-17T08:29:34;101895.81;;;9.37;56.56
25759;BME280;13604;52.496;13.456;2024-03-17T08:32:00;101891.91;;;9.69;56.80
25759;BME280;13604;52.496;13.456;2024-03-17T08:34:25;101887.03;;;10.13;55.23
25759;BME280;13604;52.496;13.456;2024-03-17T08:36:50;101865.00;;;9.30;55.08
25759;BME280;13604;52.496;13.456;2024-03-17T08:39:16;101880.28;;;8.63;57.73
25759;BME280;13604;52.496;13.456;2024-03-17T08:41:41;101879.63;;;8.42;58.40
25759;BME280;13604;52.496;13.456;2024-03-17T08:44:06;101868.00;;;8.48;59.26
25759;BME280;13604;52.496;13.456;2024-03-17T08:46:32;101874.47;;;8.54;59.34
25759;BME280;13604;52.496;13.456;2024-03-17T08:48:57;101857.19;;;8.54;59.61
25759;BME280;13604;52.496;13.456;2024-03-17T08:51:22;101902.63;;;8.73;57.82
25759;BME280;13604;52.496;13.456;2024-03-17T08:53:48;101892.19;;;8.47;58.72
25759;BME280;13604;52.496;13.456;2024-03-17T08:56:14;101890.44;;;8.60;59.21
25759;BME280;13604;52.496;13.456;2024-03-17T08:58:39;101908.28;;;8.67;59.67
25759;BME280;13604;52.496;13.456;2024-03-17T09:01:06;101898.38;;;8.50;59.77
25759;BME280;13604;52.496;13.456;2024-03-17T09:03:32;101915.88;;;8.17;61.59
25759;BME280;13604;52.496;13.456;2024-03-17T09:05:57;101884.56;;;7.44;63.98
25759;BME280;13604;52.496;13.456;2024-03-17T09:08:23;101896.19;;;7.61;64.11
25759;BME280;13604;52.496;13.456;2024-03-17T09:10:51;101891.84;;;8.43;63.47
25759;BME280;13604;52.496;13.456;2024-03-17T09:13:19;101909.09;;;8.91;59.08
25759;BME280;13604;52.496;13.456;2024-03-17T09:15:58;101914.28;;;9.03;58.07
25759;BME280;13604;52.496;13.456;2024-03-17T09:18:27;101919.03;;;8.72;57.02
25759;BME280;13604;52.496;13.456;2024-03-17T09:21:05;101901.44;;;8.56;57.16
25759;BME280;13604;52.496;13.456;2024-03-17T09:23:33;101900.69;;;9.07;55.95
25759;BME280;13604;52.496;13.456;2024-03-17T09:26:05;101903.66;;;11.40;52.68
25759;BME280;13604;52.496;13.456;2024-03-17T09:28:31;101888.69;;;12.11;48.14
25759;BME280;13604;52.496;13.456;2024-03-17T09:30:58;101905.56;;;12.64;47.47
25759;BME280;13604;52.496;13.456;2024-03-17T09:33:24;101903.75;;;13.96;43.96
25759;BME280;13604;52.496;13.456;2024-03-17T09:35:57;101906.63;;;13.66;43.13
25759;BME280;13604;52.496;13.456;2024-03-17T09:38:23;101914.63;;;13.35;44.96
25759;BME280;13604;52.496;13.456;2024-03-17T09:40:49;101893.47;;;12.66;44.78
25759;BME280;13604;52.496;13.456;2024-03-17T09:43:17;101890.81;;;11.44;46.98
25759;BME280;13604;52.496;13.456;2024-03-17T09:45:43;101895.81;;;10.56;49.66
25759;BME280;13604;52.496;13.456;2024-03-17T09:48:14;101897.19;;;11.34;49.66
25759;BME280;13604;52.496;13.456;2024-03-17T09:50:40;101904.88;;;14.01;44.92
25759;BME280;13604;52.496;13.456;2024-03-17T09:53:05;101902.50;;;14.60;42.06
25759;BME280;13604;52.496;13.456;2024-03-17T09:55:32;101885.53;;;13.63;42.04
25759;BME280;13604;52.496;13.456;2024-03-17T09:57:57;101908.72;;;13.22;43.45
25759;BME280;13604;52.496;13.456;2024-03-17T10:00:22;101907.50;;;14.55;41.23
25759;BME280;13604;52.496;13.456;2024-03-17T10:02:48;101882.56;;;16.47;37.48
25759;BME280;13604;52.496;13.456;2024-03-17T10:05:25;101902.25;;;19.17;33.89
25759;BME280;13604;52.496;13.456;2024-03-17T10:07:51;101883.34;;;19.66;31.43
25759;BME280;13604;52.496;13.456;2024-03-17T10:10:17;101892.47;;;18.26;32.55
25759;BME280;13604;52.496;13.456;2024-03-17T10:12:44;101893.44;;;16.79;34.56
25759;BME280;13604;52.496;13.456;2024-03-17T10:15:12;101897.84;;;15.11;36.53
25759;BME280;13604;52.496;13.456;2024-03-17T10:17:38;101902.66;;;14.27;38.37
25759;BME280;13604;52.496;13.456;2024-03-17T10:20:20;101900.97;;;14.83;38.45
25759;BME280;13604;52.496;13.456;2024-03-17T10:23:03;101852.41;;;15.93;35.41
25759;BME280;13604;52.496;13.456;2024-03-17T10:25:30;101898.91;;;17.81;34.21
25759;BME280;13604;52.496;13.456;2024-03-17T10:27:56;101895.00;;;16.96;34.27
25759;BME280;13604;52.496;13.456;2024-03-17T10:30:22;101891.38;;;15.22;36.64
25759;BME280;13604;52.496;13.456;2024-03-17T10:32:53;101897.47;;;13.92;39.61
25759;BME280;13604;52.496;13.456;2024-03-17T10:35:30;101895.44;;;14.41;39.72
25759;BME280;13604;52.496;13.456;2024-03-17T10:37:57;101874.72;;;14.83;38.46
25759;BME280;13604;52.496;13.456;2024-03-17T10:40:24;101897.00;;;13.65;39.24
25759;BME280;13604;52.496;13.456;2024-03-17T10:42:50;101886.19;;;12.60;42.01
25759;BME280;13604;52.496;13.456;2024-03-17T10:45:16;101904.09;;;12.38;42.46
25759;BME280;13604;52.496;13.456;2024-03-17T10:47:48;101883.44;;;12.11;43.34
25759;BME280;13604;52.496;13.456;2024-03-17T10:50:23;101898.84;;;12.06;43.67
25759;BME280;13604;52.496;13.456;2024-03-17T10:52:52;101906.78;;;11.93;43.99
25759;BME280;13604;52.496;13.456;2024-03-17T10:55:24;101906.03;;;11.81;43.37
25759;BME280;13604;52.496;13.456;2024-03-17T10:57:55;101873.81;;;13.05;41.23
25759;BME280;13604;52.496;13.456;2024-03-17T11:00:24;101879.03;;;13.73;40.56
25759;BME280;13604;52.496;13.456;2024-03-17T11:02:52;101895.31;;;13.49;40.30
25759;BME280;13604;52.496;13.456;2024-03-17T11:05:27;101905.41;;;12.77;41.32
25759;BME280;13604;52.496;13.456;2024-03-17T11:07:59;101909.56;;;11.96;43.36
25759;BME280;13604;52.496;13.456;2024-03-17T11:10:28;101908.03;;;12.94;42.68
25759;BME280;13604;52.496;13.456;2024-03-17T11:12:55;101900.75;;;17.10;34.62
25759;BME280;13604;52.496;13.456;2024-03-17T11:20:34;101905.72;;;14.91;35.07
25759;BME280;13604;52.496;13.456;2024-03-17T11:23:01;101894.47;;;13.85;37.43
25759;BME280;13604;52.496;13.456;2024-03-17T11:27:55;101882.25;;;12.52;40.41
25759;BME280;13604;52.496;13.456;2024-03-17T11:39:02;101878.78;;;24.60;23.79
25759;BME280;13604;52.496;13.456;2024-03-17T11:41:41;101884.34;;;26.78;21.87
25759;BME280;13604;52.496;13.456;2024-03-17T11:46:58;101892.94;;;27.40;19.64
25759;BME280;13604;52.496;13.456;2024-03-17T11:49:30;101889.75;;;26.36;20.66
25759;BME280;13604;52.496;13.456;2024-03-17T11:52:00;101871.56;;;27.39;20.04
25759;BME280;13604;52.496;13.456;2024-03-17T11:54:27;101890.56;;;26.78;19.28
25759;BME280;13604;52.496;13.456;2024-03-17T11:56:54;101896.91;;;25.49;20.54
25759;BME280;13604;52.496;13.456;2024-03-17T11:59:21;101892.22;;;24.77;20.99
25759;BME280;13604;52.496;13.456;2024-03-17T12:01:48;101891.50;;;23.79;21.46
25759;BME280;13604;52.496;13.456;2024-03-17T12:04:15;101900.31;;;21.77;22.79
25759;BME280;13604;52.496;13.456;2024-03-17T12:06:48;101877.06;;;22.14;23.20
25759;BME280;13604;52.496;13.456;2024-03-17T12:09:26;101880.50;;;22.67;21.71
25759;BME280;13604;52.496;13.456;2024-03-17T12:12:03;101889.69;;;23.76;21.37
25759;BME280;13604;52.496;13.456;2024-03-17T12:14:32;101884.09;;;22.72;21.92
25759;BME280;13604;52.496;13.456;2024-03-17T12:17:09;101870.53;;;23.18;22.38
25759;BME280;13604;52.496;13.456;2024-03-17T12:19:36;101868.25;;;24.79;21.64
25759;BME280;13604;52.496;13.456;2024-03-17T12:22:03;101855.84;;;23.60;20.84
25759;BME280;13604;52.496;13.456;2024-03-17T12:24:34;101858.75;;;20.42;23.58
25759;BME280;13604;52.496;13.456;2024-03-17T12:27:00;101858.00;;;20.48;24.29
25759;BME280;13604;52.496;13.456;2024-03-17T12:32:02;101863.84;;;23.61;22.07
25759;BME280;13604;52.496;13.456;2024-03-17T12:34:30;101847.59;;;24.36;21.03
25759;BME280;13604;52.496;13.456;2024-03-17T12:36:58;101826.47;;;24.70;20.79
25759;BME280;13604;52.496;13.456;2024-03-17T12:39:28;101850.44;;;24.73;21.05
25759;BME280;13604;52.496;13.456;2024-03-17T12:42:09;101845.25;;;25.20;19.92
25759;BME280;13604;52.496;13.456;2024-03-17T12:44:49;101818.22;;;24.18;20.57
25759;BME280;13604;52.496;13.456;2024-03-17T12:47:16;101839.63;;;24.47;21.23
25759;BME280;13604;52.496;13.456;2024-03-17T12:49:46;101824.81;;;25.11;19.69
25759;BME280;13604;52.496;13.456;2024-03-17T12:52:20;101849.06;;;23.93;20.51
25759;BME280;13604;52.496;13.456;2024-03-17T12:55:02;101827.22;;;22.54;22.97
25759;BME280;13604;52.496;13.456;2024-03-17T12:57:51;101822.22;;;22.13;23.68
25759;BME280;13604;52.496;13.456;2024-03-17T13:00:35;101840.59;;;21.02;24.73
25759;BME280;13604;52.496;13.456;2024-03-17T13:03:05;101843.81;;;19.36;26.25
25759;BME280;13604;52.496;13.456;2024-03-17T13:05:32;101825.41;;;17.63;28.35